Time;durP1;ratioP1;P1;durP2;ratioP2;P2;SDS_P1;SDS_P2;PMS_P1;PMS_P2;Temp;Humidity;BMP_temperature;BMP_pressure;BME280_temperature;BME280_humidity;BME280_pressure;Samples;Min_cycle;Max_cycle;Signal;HPM_P1;HPM_P2
2023/12/07 00:09:06;;;;;;;7.57;4.80;;;;;;;20.17;50.78;100086.06;41350769;28;20117;-76
2023/12/07 00:29:07;;;;;;;5.30;4.13;;;;;;;20.15;50.69;100078.25;41306540;28;20061;-73
2023/12/07 00:49:07;;;;;;;5.93;4.05;;;;;;;20.21;50.41;100083.03;41325657;28;20042;-73
2023/12/07 01:09:13;;;;;;;5.03;3.83;;;;;;;20.24;50.18;100077.56;41354682;28;20505;-74
2023/12/07 01:29:16;;;;;;;4.03;3.25;;;;;;;20.20;50.02;100076.13;41341688;28;20129;-73
2023/12/07 01:49:16;;;;;;;4.03;3.03;;;;;;;20.26;50.37;100065.13;41324230;28;20082;-73
2023/12/07 02:09:17;;;;;;;4.63;2.90;;;;;;;20.22;50.26;100068.94;41330740;28;20112;-71
2023/12/07 02:29:17;;;;;;;3.63;2.60;;;;;;;20.21;49.96;100069.06;41310673;28;20054;-72
2023/12/07 02:49:18;;;;;;;4.10;2.47;;;;;;;20.22;50.27;100071.56;41322288;28;20140;-77
2023/12/07 03:09:18;;;;;;;2.88;2.40;;;;;;;20.24;50.01;100074.94;41303201;28;20410;-73
2023/12/07 03:29:19;;;;;;;2.40;2.20;;;;;;;20.23;49.98;100093.47;41340321;28;20042;-73
2023/12/07 03:49:19;;;;;;;2.25;1.75;;;;;;;20.25;49.56;100100.25;41346700;28;20050;-73
2023/12/07 04:09:19;;;;;;;1.85;1.70;;;;;;;20.24;49.77;100109.09;41348535;28;20498;-73
2023/12/07 04:29:20;;;;;;;2.25;1.80;;;;;;;20.27;49.72;100123.81;41364454;28;20138;-73
2023/12/07 04:49:20;;;;;;;1.80;1.70;;;;;;;20.22;49.73;100136.47;41298381;28;20532;-72
2023/12/07 05:09:21;;;;;;;1.58;1.40;;;;;;;20.24;49.70;100147.72;41308624;28;20046;-73
2023/12/07 05:29:22;;;;;;;2.25;1.70;;;;;;;20.95;48.72;100179.84;41418144;28;20050;-72
2023/12/07 05:49:22;;;;;;;4.50;1.52;;;;;;;21.17;48.80;100182.59;41417305;28;20096;-74
2023/12/07 06:29:42;;;;;;;5.63;2.20;;;;;;;21.15;47.74;100214.28;41301798;28;20073;-73
2023/12/07 06:49:42;;;;;;;6.40;2.45;;;;;;;21.25;48.67;100246.84;41297263;28;20126;-73
2023/12/07 07:09:43;;;;;;;3.22;1.90;;;;;;;21.33;48.18;100256.75;41277882;28;20050;-75
2023/12/07 07:29:44;;;;;;;5.38;1.92;;;;;;;21.37;47.79;100270.50;41300018;28;20042;-75
2023/12/07 07:49:44;;;;;;;3.70;2.45;;;;;;;21.36;47.71;100285.47;41342037;28;20045;-73
2023/12/07 08:09:44;;;;;;;6.28;3.88;;;;;;;21.31;47.75;100303.41;41323350;28;20394;-75
2023/12/07 08:29:46;;;;;;;5.70;4.50;;;;;;;21.42;47.50;100303.44;41303381;28;20038;-79
2023/12/07 08:49:46;;;;;;;6.00;4.07;;;;;;;21.51;47.24;100303.66;41476543;28;20076;-79
2023/12/07 09:09:47;;;;;;;8.43;4.55;;;;;;;21.52;47.27;100303.53;41488929;28;20042;-79
2023/12/07 09:29:51;;;;;;;5.25;4.57;;;;;;;21.59;47.00;100317.06;41397001;28;20105;-82
2023/12/07 09:49:52;;;;;;;6.25;5.15;;;;;;;21.54;46.30;100306.84;41399303;28;20045;-78
2023/12/07 10:09:52;;;;;;;5.97;4.72;;;;;;;21.55;46.42;100310.34;41355606;28;20049;-77
2023/12/07 10:29:52;;;;;;;6.90;5.50;;;;;;;21.54;46.33;100306.84;41418565;28;20046;-77
2023/12/07 10:49:56;;;;;;;6.25;5.20;;;;;;;21.47;46.03;100305.69;41489345;28;20047;-74
2023/12/07 11:10:05;;;;;;;6.95;4.90;;;;;;;21.59;46.54;100317.91;41527055;28;20052;-72
2023/12/07 11:30:07;;;;;;;5.38;4.53;;;;;;;21.54;46.84;100333.19;41700489;22;20065;-72
2023/12/07 11:50:09;;;;;;;6.03;4.97;;;;;;;21.59;46.19;100327.59;41715423;28;20532;-74
2023/12/07 12:10:10;;;;;;;4.97;4.28;;;;;;;21.49;45.96;100335.38;41694484;28;20053;-74
2023/12/07 12:30:13;;;;;;;5.28;4.10;;;;;;;21.53;45.42;100344.72;41670469;28;20053;-74
2023/12/07 12:50:39;;;;;;;4.20;3.80;;;;;;;21.51;45.68;100358.97;41654747;28;20114;-73
2023/12/07 13:10:40;;;;;;;4.43;3.47;;;;;;;21.49;45.48;100379.34;41659668;28;20151;-72
2023/12/07 13:30:40;;;;;;;4.82;3.70;;;;;;;21.50;44.93;100381.84;41657924;28;20463;-72
2023/12/07 13:50:42;;;;;;;5.53;4.15;;;;;;;21.52;44.88;100395.75;41666789;28;20049;-72
2023/12/07 14:10:42;;;;;;;5.50;3.97;;;;;;;21.55;45.06;100413.09;41632081;28;20148;-75
2023/12/07 14:30:43;;;;;;;6.85;3.72;;;;;;;21.63;45.50;100442.34;41652112;28;20041;-77
2023/12/07 14:50:43;;;;;;;7.30;3.63;;;;;;;21.58;45.57;100474.34;41661886;28;20049;-79
2023/12/07 15:10:44;;;;;;;3.95;3.47;;;;;;;21.46;45.63;100480.53;41680934;28;20527;-76
2023/12/07 15:30:45;;;;;;;4.25;3.60;;;;;;;21.39;45.72;100501.22;41659016;28;20073;-76
2023/12/07 15:50:49;;;;;;;5.10;3.78;;;;;;;21.46;46.19;100506.00;41608439;28;20037;-76
2023/12/07 16:10:49;;;;;;;10.80;3.90;;;;;;;21.31;46.55;100526.47;41649371;28;20056;-76
2023/12/07 16:30:50;;;;;;;4.68;3.80;;;;;;;21.14;46.49;100549.66;41651724;28;20045;-77
2023/12/07 16:50:54;;;;;;;4.22;3.60;;;;;;;21.00;46.53;100550.66;41670256;28;20072;-77
2023/12/07 17:10:56;;;;;;;5.75;3.72;;;;;;;20.94;46.86;100580.06;41684065;28;20046;-78
2023/12/07 17:30:57;;;;;;;4.20;3.50;;;;;;;20.93;46.66;100587.16;41713414;28;20579;-78
2023/12/07 17:50:58;;;;;;;5.78;4.15;;;;;;;20.93;46.32;100592.41;41705254;28;20579;-73
2023/12/07 18:10:59;;;;;;;5.53;4.43;;;;;;;20.78;46.38;100599.59;41698466;28;20037;-74
2023/12/07 18:31:00;;;;;;;7.00;4.20;;;;;;;20.59;46.95;100621.13;41664130;28;20044;-75
2023/12/07 18:51:02;;;;;;;4.95;4.43;;;;;;;20.77;47.34;100620.78;41693022;28;20054;-78
2023/12/07 19:11:03;;;;;;;9.80;4.85;;;;;;;20.81;47.99;100626.66;41684094;28;20067;-79
2023/12/07 19:31:05;;;;;;;6.20;4.82;;;;;;;20.79;48.25;100621.53;41633848;28;20373;-74
2023/12/07 19:51:05;;;;;;;22.52;8.30;;;;;;;20.86;49.01;100624.53;41653989;28;20037;-70
2023/12/07 20:11:06;;;;;;;15.15;8.13;;;;;;;20.74;48.96;100645.53;41679059;28;20045;-67
2023/12/07 20:31:07;;;;;;;14.00;7.82;;;;;;;20.68;49.45;100650.34;41631216;28;20049;-70
2023/12/07 20:51:07;;;;;;;13.00;8.65;;;;;;;20.39;48.30;100679.56;41593476;28;20630;-67
2023/12/07 21:11:09;;;;;;;12.35;8.80;;;;;;;20.60;49.35;100690.38;41633280;28;20045;-69
2023/12/07 21:31:09;;;;;;;14.52;8.73;;;;;;;20.57;49.35;100694.06;41583959;28;20052;-67
2023/12/07 21:51:10;;;;;;;11.18;8.32;;;;;;;20.53;49.32;100697.84;41639957;28;20486;-66
2023/12/07 22:11:10;;;;;;;11.90;7.70;;;;;;;20.48;49.53;100702.56;41690113;28;20056;-67
2023/12/07 22:31:11;;;;;;;9.18;7.40;;;;;;;20.40;49.80;100695.22;41674036;28;20191;-67
2023/12/07 22:51:11;;;;;;;9.27;7.05;;;;;;;20.35;50.30;100676.28;41671416;28;20056;-71
2023/12/07 23:11:12;;;;;;;10.82;7.25;;;;;;;20.29;50.20;100661.78;41673751;28;20045;-72
2023/12/07 23:31:13;;;;;;;9.43;6.95;;;;;;;20.28;50.67;100659.25;41654638;28;20064;-71
2023/12/07 23:51:14;;;;;;;9.25;6.72;;;;;;;20.28;50.45;100648.75;41639471;28;20098;-71
